createdAt,value
2022-08-19T00:04:31.575Z,79.12
2022-08-19T00:09:32.730Z,79.25
2022-08-19T00:14:33.753Z,79.19
2022-08-19T00:19:37.991Z,79.81
2022-08-19T00:24:38.917Z,80.20
2022-08-19T00:29:39.843Z,80.16
2022-08-19T00:34:40.690Z,80.57
2022-08-19T00:39:41.625Z,80.44
2022-08-19T00:44:43.743Z,79.87
2022-08-19T00:49:51.692Z,79.79
2022-08-19T00:54:53.550Z,80.01
2022-08-19T01:00:01.698Z,81.72
2022-08-19T01:05:10.090Z,82.98
2022-08-19T01:10:14.776Z,84.05
2022-08-19T01:15:20.659Z,83.93
2022-08-19T01:20:23.427Z,84.15
2022-08-19T01:25:31.638Z,84.08
2022-08-19T01:30:35.839Z,83.92
2022-08-19T01:35:36.965Z,82.63
2022-08-19T01:40:40.256Z,82.78
2022-08-19T01:45:41.994Z,82.24
2022-08-19T01:50:43.890Z,82.51
2022-08-19T01:55:45.449Z,82.32
2022-08-19T02:00:46.930Z,82.03
2022-08-19T02:05:47.757Z,81.54
2022-08-19T02:10:50.037Z,82.06
2022-08-19T02:15:51.032Z,81.02
2022-08-19T02:20:51.956Z,82.37
2022-08-19T02:25:52.863Z,82.71
2022-08-19T02:30:53.748Z,83.02
2022-08-19T02:35:54.611Z,83.26
2022-08-19T02:41:05.192Z,83.17
2022-08-19T02:46:40.525Z,83.82
2022-08-19T02:51:43.568Z,85.02
2022-08-19T02:56:45.126Z,87.63
2022-08-19T03:01:46.302Z,86.31
2022-08-19T03:06:47.796Z,86.28
2022-08-19T03:11:48.802Z,86.73
2022-08-19T03:16:53.877Z,86.15
2022-08-19T03:21:55.676Z,86.73
2022-08-19T03:26:58.039Z,87.24
2022-08-19T03:32:05.230Z,87.08
2022-08-19T03:37:09.241Z,87.09
2022-08-19T03:42:38.453Z,86.88
2022-08-19T03:47:50.447Z,87.04
2022-08-19T03:52:52.137Z,87.53
2022-08-19T03:57:57.328Z,88.25
2022-08-19T04:03:01.546Z,88.71
2022-08-19T04:08:02.994Z,88.22
2022-08-19T04:13:09.459Z,88.66
2022-08-19T04:18:10.813Z,88.83
2022-08-19T04:23:13.854Z,88.82
2022-08-19T04:28:14.775Z,88.82
2022-08-19T04:33:18.824Z,89.17
2022-08-19T04:38:29.608Z,88.89
2022-08-19T04:43:31.868Z,88.71
2022-08-19T04:48:32.767Z,88.66
2022-08-19T04:53:38.509Z,88.56
2022-08-19T04:58:42.737Z,88.22
2022-08-19T05:03:43.779Z,89.50
2022-08-19T05:08:45.669Z,92.27
2022-08-19T05:13:48.671Z,92.80
2022-08-19T05:19:08.489Z,92.58
2022-08-19T05:24:10.254Z,92.28
2022-08-19T05:29:11.099Z,90.46
2022-08-19T05:34:18.337Z,92.03
2022-08-19T05:39:21.521Z,92.60
2022-08-19T05:44:25.401Z,92.77
2022-08-19T05:49:27.433Z,92.98
2022-08-19T05:54:28.274Z,93.61
2022-08-19T05:59:29.596Z,93.51
2022-08-19T06:04:33.789Z,93.16
2022-08-19T06:09:35.402Z,92.36
2022-08-19T06:14:40.349Z,91.18
2022-08-19T06:19:44.255Z,90.94
2022-08-19T06:24:45.126Z,88.99
2022-08-19T06:29:47.033Z,88.20
2022-08-19T06:34:47.950Z,86.75
2022-08-19T06:39:49.831Z,85.70
2022-08-19T06:44:53.108Z,84.33
2022-08-19T06:50:03.673Z,82.84
2022-08-19T06:55:06.649Z,82.21
2022-08-19T07:00:13.776Z,81.43
2022-08-19T07:05:14.778Z,80.79
2022-08-19T07:10:15.682Z,79.66
2022-08-19T07:15:18.150Z,79.26
2022-08-19T07:20:20.221Z,78.46
2022-08-19T07:25:22.309Z,77.32
2022-08-19T07:30:33.270Z,76.66
2022-08-19T07:35:35.612Z,75.24
2022-08-19T07:40:36.633Z,73.85
2022-08-19T07:45:37.555Z,72.97
2022-08-19T07:50:39.252Z,73.40
2022-08-19T07:55:43.551Z,73.06
2022-08-19T08:00:47.988Z,72.02
2022-08-19T08:06:07.334Z,71.52
2022-08-19T08:11:08.466Z,70.34
2022-08-19T08:16:10.323Z,71.08
2022-08-19T08:21:15.158Z,71.53
2022-08-19T08:26:16.422Z,71.17
2022-08-19T08:31:19.352Z,71.63
2022-08-19T08:36:21.210Z,69.31
2022-08-19T08:43:27.101Z,68.59
2022-08-19T08:48:58.028Z,68.08
2022-08-19T08:54:04.921Z,67.11
2022-08-19T08:59:19.525Z,65.66
2022-08-19T09:04:22.998Z,61.84
2022-08-19T09:09:35.604Z,58.87
2022-08-19T09:15:04.892Z,58.53
2022-08-19T09:20:24.692Z,56.08
2022-08-19T09:25:29.625Z,54.05
2022-08-19T09:30:34.905Z,52.71
2022-08-19T09:35:43.899Z,51.48
2022-08-19T09:40:51.317Z,47.84
2022-08-19T09:45:52.687Z,47.53
2022-08-19T09:50:53.544Z,46.89
2022-08-19T09:55:55.950Z,47.08
2022-08-19T10:00:58.661Z,45.64
2022-08-19T10:06:02.770Z,43.46
2022-08-19T10:11:27.353Z,45.72
2022-08-19T10:16:30.416Z,46.37
2022-08-19T10:21:34.449Z,45.75
2022-08-19T10:26:41.764Z,46.57
2022-08-19T10:32:02.190Z,45.59
2022-08-19T10:37:06.202Z,46.51
2022-08-19T10:42:13.229Z,46.75
2022-08-19T10:47:17.351Z,45.38
2022-08-19T10:52:34.666Z,41.88
2022-08-19T10:58:01.241Z,42.10
2022-08-19T11:03:03.604Z,41.60
2022-08-19T11:08:04.469Z,38.70
2022-08-19T11:13:25.550Z,39.00
2022-08-19T11:18:26.674Z,36.62
2022-08-19T11:23:27.528Z,36.99
2022-08-19T11:28:28.801Z,36.55
2022-08-19T11:33:31.278Z,37.42
2022-08-19T11:38:32.226Z,37.34
2022-08-19T11:43:37.513Z,37.98
2022-08-19T11:48:40.194Z,36.85
2022-08-19T11:53:41.406Z,36.96
2022-08-19T11:58:42.392Z,36.18
2022-08-19T12:03:45.842Z,36.41
2022-08-19T12:08:47.647Z,35.94
2022-08-19T12:13:48.565Z,35.76
2022-08-19T12:18:51.303Z,35.72
2022-08-19T12:23:55.767Z,34.57
2022-08-19T12:28:59.681Z,34.20
2022-08-19T12:34:02.731Z,34.78
2022-08-19T12:39:04.411Z,33.74
2022-08-19T12:44:05.910Z,35.21
2022-08-19T12:49:27.367Z,34.29
2022-08-19T12:54:57.645Z,34.75
2022-08-19T12:59:59.487Z,34.73
2022-08-19T13:05:00.934Z,35.76
2022-08-19T13:10:03.722Z,36.21
2022-08-19T13:15:10.574Z,35.91
2022-08-19T13:20:12.284Z,36.36
2022-08-19T13:25:16.012Z,35.26
2022-08-19T13:30:38.550Z,35.66
2022-08-19T13:35:46.252Z,36.04
2022-08-19T13:40:49.772Z,36.21
2022-08-19T13:45:55.508Z,36.85
2022-08-19T13:50:56.393Z,36.20
2022-08-19T13:55:57.465Z,37.37
2022-08-19T14:00:59.390Z,37.08
2022-08-19T14:06:01.034Z,37.68
2022-08-19T14:11:06.699Z,38.36
2022-08-19T14:16:12.443Z,37.26
2022-08-19T14:21:20.461Z,36.95
2022-08-19T14:26:22.366Z,36.93
2022-08-19T14:31:27.748Z,35.40
2022-08-19T14:36:35.320Z,36.09
2022-08-19T14:41:41.663Z,36.45
2022-08-19T14:46:49.375Z,37.82
2022-08-19T14:51:50.892Z,37.88
2022-08-19T14:56:52.016Z,36.89
2022-08-19T15:01:56.667Z,36.07
2022-08-19T15:06:57.575Z,35.34
2022-08-19T15:11:59.909Z,35.47
2022-08-19T15:17:05.183Z,36.63
2022-08-19T15:22:07.000Z,37.72
2022-08-19T15:27:07.844Z,38.49
2022-08-19T15:32:09.326Z,37.69
2022-08-19T15:37:10.175Z,37.91
2022-08-19T15:42:11.044Z,37.89
2022-08-19T15:47:20.353Z,39.34
2022-08-19T15:52:24.746Z,39.85
2022-08-19T15:57:35.884Z,39.52
2022-08-19T16:02:55.522Z,39.29
2022-08-19T16:07:59.467Z,39.27
2022-08-19T16:13:00.463Z,39.38
2022-08-19T16:18:04.936Z,39.61
2022-08-19T16:23:06.145Z,39.41
2022-08-19T16:28:10.045Z,39.75
2022-08-19T16:33:11.263Z,39.76
2022-08-19T16:38:12.511Z,39.18
2022-08-19T16:43:13.351Z,39.23
2022-08-19T16:48:17.801Z,39.98
2022-08-19T16:53:21.976Z,39.94
2022-08-19T16:58:28.273Z,40.29
2022-08-19T17:03:35.774Z,40.57
2022-08-19T17:08:38.044Z,40.96
2022-08-19T17:13:39.064Z,41.75
2022-08-19T17:18:39.953Z,42.13
2022-08-19T17:23:42.674Z,42.85
2022-08-19T17:28:49.043Z,42.98
2022-08-19T17:33:51.170Z,43.59
2022-08-19T17:38:58.610Z,43.39
2022-08-19T17:44:01.168Z,43.48
2022-08-19T17:49:02.180Z,43.65
2022-08-19T17:54:04.859Z,43.10
2022-08-19T17:59:10.858Z,43.06
2022-08-19T18:04:16.493Z,43.03
2022-08-19T18:09:17.300Z,43.55
2022-08-19T18:14:32.167Z,44.11
2022-08-19T18:19:41.275Z,44.48
2022-08-19T18:24:46.148Z,44.76
2022-08-19T18:29:47.419Z,45.25
2022-08-19T18:34:53.835Z,45.79
2022-08-19T18:40:13.614Z,46.13
2022-08-19T18:45:33.721Z,46.67
2022-08-19T18:50:34.670Z,47.71
2022-08-19T18:55:36.686Z,48.65
2022-08-19T19:00:37.517Z,49.19
2022-08-19T19:05:43.426Z,50.03
2022-08-19T19:10:44.329Z,50.47
2022-08-19T19:15:46.385Z,51.45
2022-08-19T19:20:47.269Z,52.34
2022-08-19T19:25:50.960Z,53.02
2022-08-19T19:30:56.777Z,53.86
2022-08-19T19:35:58.005Z,54.00
2022-08-19T19:40:59.314Z,54.07
2022-08-19T19:46:00.253Z,54.32
2022-08-19T19:51:03.156Z,54.60
2022-08-19T19:56:04.678Z,54.93
2022-08-19T20:01:11.990Z,55.23
2022-08-19T20:06:15.660Z,55.84
2022-08-19T20:11:32.415Z,56.01
2022-08-19T20:16:33.541Z,56.47
2022-08-19T20:21:35.305Z,57.14
2022-08-19T20:26:36.925Z,57.58
2022-08-19T20:31:40.326Z,58.61
2022-08-19T20:36:58.970Z,59.65
2022-08-19T20:41:59.968Z,60.25
2022-08-19T20:47:03.804Z,60.69
2022-08-19T20:52:05.522Z,61.39
2022-08-19T20:57:06.429Z,61.74
2022-08-19T21:02:07.403Z,61.78
2022-08-19T21:07:08.437Z,61.98
2022-08-19T21:12:12.214Z,62.24
2022-08-19T21:17:13.932Z,62.67
2022-08-19T21:22:17.013Z,62.74
2022-08-19T21:27:18.087Z,63.21
2022-08-19T21:32:19.850Z,63.27
2022-08-19T21:37:24.982Z,63.86
2022-08-19T21:42:26.439Z,63.89
2022-08-19T21:47:27.319Z,64.38
2022-08-19T21:52:28.828Z,64.91
2022-08-19T21:57:30.036Z,65.44
2022-08-19T22:02:34.612Z,65.56
2022-08-19T22:07:36.191Z,65.85
2022-08-19T22:12:47.409Z,66.29
2022-08-19T22:17:53.410Z,66.37
2022-08-19T22:23:01.700Z,66.04
2022-08-19T22:28:08.057Z,66.42
2022-08-19T22:33:16.191Z,66.87
2022-08-19T22:38:17.153Z,66.99
2022-08-19T22:43:25.586Z,67.54
2022-08-19T22:48:30.092Z,68.06
2022-08-19T22:53:41.841Z,68.43
2022-08-19T22:58:43.871Z,69.24
2022-08-19T23:03:45.419Z,69.27
2022-08-19T23:08:46.704Z,69.27
2022-08-19T23:13:47.855Z,69.02
2022-08-19T23:18:48.715Z,70.00
2022-08-19T23:23:57.364Z,71.96
2022-08-19T23:29:17.285Z,71.36
2022-08-19T23:34:18.424Z,72.28
2022-08-19T23:39:19.518Z,72.91
2022-08-19T23:44:20.487Z,73.33
2022-08-19T23:49:23.272Z,73.48
2022-08-19T23:54:43.509Z,74.25
2022-08-19T23:59:44.706Z,74.94
